createdAt,value
2023-01-23T00:00:51.746Z,100192.89
2023-01-23T00:05:58.655Z,100203.08
2023-01-23T00:11:00.532Z,100205.27
2023-01-23T00:16:09.922Z,100203.50
2023-01-23T00:21:15.794Z,100204.91
2023-01-23T00:26:23.182Z,100217.60
2023-01-23T00:31:33.938Z,100220.89
2023-01-23T00:36:39.105Z,100225.26
2023-01-23T00:41:41.098Z,100227.70
2023-01-23T00:46:42.923Z,100241.14
2023-01-23T00:51:45.674Z,100238.64
2023-01-23T00:56:47.988Z,100239.10
2023-01-23T01:01:50.836Z,100249.13
2023-01-23T01:06:52.723Z,100255.41
2023-01-23T01:11:54.512Z,100251.27
2023-01-23T01:16:56.231Z,100249.80
2023-01-23T01:21:58.078Z,100248.84
2023-01-23T01:26:59.841Z,100247.53
2023-01-23T01:32:02.424Z,100249.08
2023-01-23T01:37:04.146Z,100254.09
2023-01-23T01:42:06.328Z,100263.73
2023-01-23T01:47:09.999Z,100265.58
2023-01-23T01:52:14.625Z,100261.11
2023-01-23T01:57:19.378Z,100273.39
2023-01-23T02:02:29.546Z,100275.80
2023-01-23T02:08:09.452Z,100276.33
2023-01-23T02:13:33.572Z,100281.07
2023-01-23T02:18:42.597Z,100274.02
2023-01-23T02:24:00.413Z,100273.50
2023-01-23T02:29:04.141Z,100277.51
2023-01-23T02:34:10.964Z,100287.23
2023-01-23T02:39:19.241Z,100284.48
2023-01-23T02:44:31.872Z,100295.86
2023-01-23T02:49:36.355Z,100296.10
2023-01-23T02:54:40.695Z,100298.23
2023-01-23T03:00:01.047Z,100299.19
2023-01-23T03:05:03.335Z,100304.70
2023-01-23T03:10:07.636Z,100310.52
2023-01-23T03:15:10.075Z,100307.48
2023-01-23T03:20:12.633Z,100305.23
2023-01-23T03:25:14.706Z,100299.98
2023-01-23T03:30:17.288Z,100298.73
2023-01-23T03:35:22.332Z,100302.11
2023-01-23T03:40:45.153Z,100311.02
2023-01-23T03:45:49.514Z,100309.67
2023-01-23T03:50:51.800Z,100318.38
2023-01-23T03:55:55.004Z,100309.86
2023-01-23T04:00:58.895Z,100307.70
2023-01-23T04:06:02.163Z,100311.44
2023-01-23T04:11:08.824Z,100311.23
2023-01-23T04:16:10.668Z,100312.23
2023-01-23T04:21:12.563Z,100320.88
2023-01-23T04:26:14.567Z,100322.16
2023-01-23T04:31:17.026Z,100328.80
2023-01-23T04:36:22.520Z,100324.74
2023-01-23T04:41:27.557Z,100329.58
2023-01-23T04:46:54.407Z,100339.27
2023-01-23T04:51:56.662Z,100358.74
2023-01-23T04:57:00.033Z,100368.40
2023-01-23T05:02:02.541Z,100365.50
2023-01-23T05:07:13.109Z,100372.63
2023-01-23T05:12:19.417Z,100372.14
2023-01-23T05:17:21.798Z,100364.48
2023-01-23T05:22:28.082Z,100356.88
2023-01-23T05:27:29.937Z,100350.66
2023-01-23T05:32:33.413Z,100361.79
2023-01-23T05:37:52.771Z,100359.23
2023-01-23T05:42:57.170Z,100363.55
2023-01-23T05:48:24.067Z,100373.23
2023-01-23T05:53:25.794Z,100379.21
2023-01-23T05:58:27.601Z,100389.36
2023-01-23T06:03:43.399Z,100395.31
2023-01-23T06:09:02.999Z,100400.64
2023-01-23T06:14:05.689Z,100406.98
2023-01-23T06:19:27.158Z,100408.66
2023-01-23T06:24:29.179Z,100423.91
2023-01-23T06:29:31.001Z,100435.39
2023-01-23T06:34:33.020Z,100455.23
2023-01-23T06:39:35.050Z,100454.53
2023-01-23T06:44:37.545Z,100455.64
2023-01-23T06:49:39.628Z,100467.73
2023-01-23T06:54:41.656Z,100473.02
2023-01-23T06:59:43.604Z,100470.38
2023-01-23T07:04:46.310Z,100476.37
2023-01-23T07:09:48.326Z,100477.95
2023-01-23T07:14:59.278Z,100477.70
2023-01-23T07:20:08.776Z,100480.98
2023-01-23T07:25:15.396Z,100485.77
2023-01-23T07:30:18.132Z,100483.86
2023-01-23T07:35:21.126Z,100483.65
2023-01-23T07:40:23.376Z,100484.63
2023-01-23T07:45:25.945Z,100485.30
2023-01-23T07:50:27.656Z,100487.79
2023-01-23T07:55:29.532Z,100489.22
2023-01-23T08:00:31.627Z,100489.02
2023-01-23T08:05:33.635Z,100491.27
2023-01-23T08:10:35.371Z,100493.52
2023-01-23T08:15:38.769Z,100494.50
2023-01-23T08:20:40.590Z,100502.89
2023-01-23T08:25:42.310Z,100506.27
2023-01-23T08:30:44.041Z,100505.45
2023-01-23T08:35:57.741Z,100510.33
2023-01-23T08:41:02.547Z,100521.61
2023-01-23T08:46:04.632Z,100526.20
2023-01-23T08:51:09.365Z,100531.05
2023-01-23T08:56:16.988Z,100530.77
2023-01-23T09:01:22.218Z,100531.81
2023-01-23T09:06:24.210Z,100536.10
2023-01-23T09:11:25.995Z,100536.23
2023-01-23T09:16:27.896Z,100535.27
2023-01-23T09:21:29.599Z,100535.25
2023-01-23T09:26:31.276Z,100533.63
2023-01-23T09:31:33.051Z,100532.88
2023-01-23T09:36:42.897Z,100528.98
2023-01-23T09:41:46.738Z,100522.84
2023-01-23T09:46:55.147Z,100522.24
2023-01-23T09:52:03.646Z,100524.23
2023-01-23T09:57:13.450Z,100519.48
2023-01-23T10:02:20.100Z,100514.39
2023-01-23T10:07:43.666Z,100512.93
2023-01-23T10:13:07.968Z,100508.52
2023-01-23T10:18:31.172Z,100507.66
2023-01-23T10:23:41.999Z,100509.87
2023-01-23T10:28:44.316Z,100507.34
2023-01-23T10:33:52.593Z,100509.30
2023-01-23T10:39:04.116Z,100505.00
2023-01-23T10:44:15.973Z,100499.94
2023-01-23T10:49:37.656Z,100502.16
2023-01-23T10:54:46.949Z,100504.98
2023-01-23T10:59:56.017Z,100504.18
2023-01-23T11:04:58.942Z,100504.17
2023-01-23T11:10:08.229Z,100507.39
2023-01-23T11:15:23.938Z,100502.41
2023-01-23T11:20:40.980Z,100499.10
2023-01-23T11:25:45.684Z,100496.60
2023-01-23T11:31:14.600Z,100490.69
2023-01-23T11:36:17.149Z,100486.88
2023-01-23T11:41:19.044Z,100481.91
2023-01-23T11:46:56.436Z,100478.50
2023-01-23T11:52:25.370Z,100479.10
2023-01-23T11:57:39.327Z,100476.54
2023-01-23T12:03:12.194Z,100473.27
2023-01-23T12:08:50.410Z,100469.48
2023-01-23T12:14:24.533Z,100460.92
2023-01-23T12:19:41.770Z,100455.64
2023-01-23T12:25:04.893Z,100458.66
2023-01-23T12:30:19.109Z,100454.45
2023-01-23T12:35:26.355Z,100455.55
2023-01-23T12:40:39.720Z,100455.71
2023-01-23T12:45:49.614Z,100449.13
2023-01-23T12:50:58.175Z,100447.58
2023-01-23T12:56:17.541Z,100445.39
2023-01-23T13:01:44.164Z,100440.60
2023-01-23T13:06:47.291Z,100448.10
2023-01-23T13:12:23.232Z,100449.21
2023-01-23T13:17:30.421Z,100454.86
2023-01-23T13:22:38.557Z,100457.05
2023-01-23T13:27:57.873Z,100463.48
2023-01-23T13:33:18.897Z,100464.91
2023-01-23T13:38:26.118Z,100472.73
2023-01-23T13:43:49.918Z,100476.11
2023-01-23T14:22:07.932Z,100480.34
2023-01-23T14:27:28.182Z,100487.92
2023-01-23T14:32:34.812Z,100491.48
2023-01-23T14:37:37.129Z,100490.73
2023-01-23T14:42:40.403Z,100494.19
2023-01-23T14:47:50.887Z,100489.84
2023-01-23T14:53:03.017Z,100484.98
2023-01-23T14:58:05.986Z,100475.72
2023-01-23T15:03:12.660Z,100469.41
2023-01-23T15:08:18.252Z,100475.84
2023-01-23T15:13:26.738Z,100478.90
2023-01-23T15:18:31.224Z,100480.33
2023-01-23T15:23:41.082Z,100484.46
2023-01-23T15:29:00.442Z,100487.42
2023-01-23T15:34:24.778Z,100491.10
2023-01-23T15:39:32.771Z,100497.04
2023-01-23T15:44:34.531Z,100498.23
2023-01-23T15:49:38.558Z,100497.66
2023-01-23T15:54:40.611Z,100496.77
2023-01-23T15:59:42.588Z,100496.84
2023-01-23T16:04:45.530Z,100499.94
2023-01-23T16:09:49.872Z,100501.50
2023-01-23T16:14:51.542Z,100497.25
2023-01-23T16:19:54.437Z,100500.52
2023-01-23T16:24:58.055Z,100503.96
2023-01-23T16:29:59.795Z,100505.11
2023-01-23T16:35:01.540Z,100507.66
2023-01-23T16:40:03.992Z,100516.92
2023-01-23T16:45:16.078Z,100521.16
2023-01-23T16:50:21.715Z,100528.91
2023-01-23T16:55:27.337Z,100532.73
2023-01-23T17:00:34.729Z,100532.61
2023-01-23T17:05:37.459Z,100531.60
2023-01-23T17:10:46.135Z,100534.89
2023-01-23T17:15:52.970Z,100529.53
2023-01-23T17:20:56.400Z,100533.10
2023-01-23T17:26:01.355Z,100532.94
2023-01-23T17:31:05.223Z,100535.10
2023-01-23T17:36:07.720Z,100539.94
2023-01-23T17:41:14.090Z,100548.33
2023-01-23T17:46:22.267Z,100550.03
2023-01-23T17:51:25.970Z,100553.70
2023-01-23T17:56:27.742Z,100552.89
2023-01-23T18:01:32.997Z,100551.88
2023-01-23T18:06:34.787Z,100556.30
2023-01-23T18:11:39.346Z,100558.70
2023-01-23T18:16:50.156Z,100556.80
2023-01-23T18:21:55.479Z,100555.35
2023-01-23T18:27:19.792Z,100558.95
2023-01-23T18:32:43.646Z,100556.95
2023-01-23T18:37:57.826Z,100558.21
2023-01-23T18:43:24.585Z,100555.01
2023-01-23T18:48:28.933Z,100559.19
2023-01-23T18:54:01.928Z,100557.31
2023-01-23T18:59:11.677Z,100555.35
2023-01-23T19:04:17.513Z,100556.78
2023-01-23T19:09:21.206Z,100562.83
2023-01-23T19:14:32.006Z,100568.94
2023-01-23T19:19:45.114Z,100560.60
2023-01-23T19:24:47.055Z,100561.24
2023-01-23T19:29:48.997Z,100563.23
2023-01-23T19:34:50.676Z,100562.31
2023-01-23T19:39:52.297Z,100567.48
2023-01-23T19:44:53.977Z,100567.00
2023-01-23T19:49:55.640Z,100565.52
2023-01-23T19:54:57.268Z,100569.67
2023-01-23T19:59:58.976Z,100571.15
2023-01-23T20:05:00.669Z,100572.02
2023-01-23T20:10:02.416Z,100572.73
2023-01-23T20:15:04.425Z,100576.00
2023-01-23T20:20:11.270Z,100576.33
2023-01-23T20:25:15.382Z,100575.98
2023-01-23T20:30:22.235Z,100580.32
2023-01-23T20:35:33.116Z,100581.17
2023-01-23T20:40:34.815Z,100579.19
2023-01-23T20:45:36.552Z,100583.02
2023-01-23T20:50:38.348Z,100583.61
2023-01-23T20:55:40.049Z,100583.66
2023-01-23T21:00:43.911Z,100581.68
2023-01-23T21:05:45.648Z,100583.54
2023-01-23T21:10:47.407Z,100583.15
2023-01-23T21:16:03.290Z,100587.67
2023-01-23T21:21:08.974Z,100586.46
2023-01-23T21:26:10.704Z,100587.22
2023-01-23T21:31:18.031Z,100585.34
2023-01-23T21:36:23.872Z,100587.69
2023-01-23T21:41:25.615Z,100587.20
2023-01-23T21:46:27.560Z,100593.29
2023-01-23T21:51:29.771Z,100592.50
2023-01-23T21:56:31.534Z,100596.02
2023-01-23T22:01:35.342Z,100597.31
2023-01-23T22:06:39.527Z,100599.70
2023-01-23T22:11:41.305Z,100604.40
2023-01-23T22:16:50.259Z,100608.95
2023-01-23T22:21:54.526Z,100608.55
2023-01-23T22:26:56.231Z,100603.94
2023-01-23T22:31:59.701Z,100604.69
2023-01-23T22:37:01.587Z,100601.46
2023-01-23T22:42:03.372Z,100601.31
2023-01-23T22:47:05.446Z,100600.21
2023-01-23T22:52:08.606Z,100602.69
2023-01-23T22:57:11.309Z,100599.95
2023-01-23T23:02:13.019Z,100600.52
2023-01-23T23:07:16.805Z,100600.73
2023-01-23T23:12:18.558Z,100601.20
2023-01-23T23:17:20.346Z,100598.96
2023-01-23T23:22:22.214Z,100599.11
2023-01-23T23:27:23.990Z,100602.98
2023-01-23T23:32:25.848Z,100603.13
2023-01-23T23:37:27.630Z,100605.38
2023-01-23T23:42:29.362Z,100604.00
2023-01-23T23:47:31.052Z,100600.45
2023-01-23T23:52:35.429Z,100595.27
2023-01-23T23:57:37.749Z,100589.86
